Wilmington, OH

7:32 PM EST on December 04, 2016 (GMT -0500)
2.2 N Wilmington | | Change Station

Elev 1053 ft 39.47 °N, 83.84 °W | Updated 2 minutes ago

Rain
Rain Mist
37.3 °F
Feels Like 37 °F
N
0.0
Wind Variable Wind from South
Gusts 4.0 mph

Today
High -- | Low -- °F
--% Chance of Precip.
Yesterday
High -- | Low -- °F
Precip. -- in
Pressure 29.88 in
Visibility 3.0 miles
Clouds Overcast 1800 ft
Windchill 37 °F
Dew Point 36 °F
Humidity 94%
Rainfall 0.07 in
Snow Depth Not available.
7:39 AM 5:11 PM
Waxing Crescent, 26% visible
SPECI KILN 050027Z AUTO 14004KT 3SM RA BR OVC018 03/02 A2988 RMK AO2 RAB2357 P0003 T00280022
Pressure 29.88 in
Visibility 3.0 miles
Clouds Overcast 1800 ft
Windchill 37 °F
Dew Point 36 °F
Humidity 94%
Rainfall 0.07 in
Snow Depth Not available.
7:39 AM 5:11 PM
Waxing Crescent, 26% visible
SPECI KILN 050027Z AUTO 14004KT 3SM RA BR OVC018 03/02 A2988 RMK AO2 RAB2357 P0003 T00280022

10-Day Weather Forecast

Almanac

Astronomy

Dec. 04, 2016 Rise Set
Actual Time
Civil Twilight
Nautical Twilight
Astronomical Twilight
Moon
Length of Visible Light
Length of Day
Tomorrow will be .
, % of the Moon is Illuminated

Today's Extremes

State Highs State Lows

Community

WunderPhotos

Upload Photos

1,955,703 photos uploaded!

WunderBlog® & News

Nearby

Air Quality

  Air Quality AQ Index Pollutant
Not available.

Snow Depth

Station Depth Elevation

Earthquake Activity

City Distance Mag. Time & Date
Minimum magnitude displayed is 2.5.

Coastal Water Temperatures

Place Temperature

Stations

Nearby Weather Stations

Station Location Temp. Windchill Dew Point Humidity Wind Precip. Elev Updated Type
                   

Watches & Warnings

There are currently no watches in effect.